createdAt,value
2022-07-26T00:02:28.537Z,8.27
2022-07-26T00:05:12.703Z,5.93
2022-07-26T00:08:10.836Z,7.70
2022-07-26T00:10:54.870Z,6.18
2022-07-26T00:13:38.776Z,6.38
2022-07-26T00:16:24.038Z,8.82
2022-07-26T00:19:08.733Z,7.03
2022-07-26T00:22:13.117Z,6.55
2022-07-26T00:24:56.972Z,6.50
2022-07-26T00:27:41.576Z,7.93
2022-07-26T00:30:25.558Z,5.80
2022-07-26T00:33:10.855Z,7.35
2022-07-26T00:35:54.717Z,5.70
2022-07-26T00:38:38.667Z,7.28
2022-07-26T00:41:22.520Z,6.18
2022-07-26T00:44:06.931Z,6.72
2022-07-26T00:46:50.849Z,7.25
2022-07-26T00:49:36.312Z,6.93
2022-07-26T00:52:20.512Z,6.85
2022-07-26T00:55:05.297Z,5.93
2022-07-26T00:57:49.663Z,5.72
2022-07-26T01:00:34.274Z,7.00
2022-07-26T01:03:18.321Z,6.13
2022-07-26T01:06:03.611Z,6.05
2022-07-26T01:08:47.597Z,5.95
2022-07-26T01:11:31.602Z,5.38
2022-07-26T01:14:15.444Z,6.32
2022-07-26T01:16:59.539Z,7.40
2022-07-26T01:19:43.817Z,6.10
2022-07-26T01:22:29.262Z,5.40
2022-07-26T01:25:13.383Z,6.43
2022-07-26T01:27:57.347Z,5.70
2022-07-26T01:30:41.301Z,5.13
2022-07-26T01:33:28.179Z,6.82
2022-07-26T01:36:12.541Z,5.00
2022-07-26T01:38:57.781Z,5.88
2022-07-26T01:41:41.850Z,6.70
2022-07-26T01:44:25.905Z,6.00
2022-07-26T01:47:09.992Z,6.68
2022-07-26T01:49:53.792Z,6.13
2022-07-26T01:52:39.317Z,6.18
2022-07-26T01:55:24.639Z,6.25
2022-07-26T01:58:09.499Z,7.60
2022-07-26T02:00:53.481Z,5.97
2022-07-26T02:03:37.622Z,7.05
2022-07-26T02:06:21.512Z,6.35
2022-07-26T02:09:05.931Z,5.57
2022-07-26T02:11:52.901Z,6.97
2022-07-26T02:14:36.915Z,6.35
2022-07-26T02:17:20.697Z,6.63
2022-07-26T02:20:06.001Z,8.10
2022-07-26T02:22:49.822Z,6.03
2022-07-26T02:25:33.847Z,5.80
2022-07-26T02:28:19.581Z,6.70
2022-07-26T02:31:03.514Z,6.38
2022-07-26T02:33:47.785Z,6.53
2022-07-26T02:36:31.635Z,7.40
2022-07-26T02:39:16.449Z,7.20
2022-07-26T02:42:02.355Z,7.15
2022-07-26T02:44:47.585Z,6.57
2022-07-26T02:47:33.019Z,7.03
2022-07-26T02:50:18.534Z,6.40
2022-07-26T02:53:02.401Z,8.05
2022-07-26T02:55:46.230Z,6.97
2022-07-26T02:58:30.161Z,7.55
2022-07-26T03:01:15.503Z,7.65
2022-07-26T03:03:59.405Z,7.70
2022-07-26T03:06:43.568Z,6.60
2022-07-26T03:09:27.440Z,6.65
2022-07-26T03:12:11.384Z,5.88
2022-07-26T03:14:55.532Z,6.70
2022-07-26T03:17:40.895Z,7.88
2022-07-26T03:20:24.641Z,6.63
2022-07-26T03:23:08.458Z,6.25
2022-07-26T03:25:52.452Z,5.93
2022-07-26T03:28:37.390Z,6.43
2022-07-26T03:31:21.316Z,6.10
2022-07-26T03:34:06.982Z,6.65
2022-07-26T03:36:51.199Z,6.00
2022-07-26T03:39:35.070Z,6.35
2022-07-26T03:42:18.870Z,5.57
2022-07-26T03:45:03.027Z,6.40
2022-07-26T03:47:47.784Z,6.50
2022-07-26T03:50:33.011Z,7.25
2022-07-26T03:53:16.953Z,5.97
2022-07-26T03:56:18.424Z,8.35
2022-07-26T03:59:05.209Z,6.45
2022-07-26T04:01:49.664Z,5.85
2022-07-26T04:04:33.598Z,5.50
2022-07-26T04:07:20.493Z,5.57
2022-07-26T04:10:06.012Z,5.68
2022-07-26T04:12:49.883Z,5.97
2022-07-26T04:15:33.741Z,8.93
2022-07-26T04:18:17.929Z,5.90
2022-07-26T04:21:01.973Z,6.97
2022-07-26T04:23:51.104Z,5.90
2022-07-26T04:26:35.512Z,8.00
2022-07-26T04:29:19.379Z,6.13
2022-07-26T04:32:03.319Z,5.00
2022-07-26T04:34:47.206Z,5.82
2022-07-26T04:37:32.968Z,5.63
2022-07-26T04:40:21.935Z,6.05
2022-07-26T04:43:07.763Z,9.75
2022-07-26T04:45:54.139Z,5.30
2022-07-26T04:48:39.493Z,6.32
2022-07-26T04:51:23.414Z,6.90
2022-07-26T04:54:08.116Z,6.20
2022-07-26T04:56:53.684Z,8.80
2022-07-26T04:59:37.461Z,12.88
2022-07-26T05:02:21.439Z,14.30
2022-07-26T05:05:06.252Z,12.90
2022-07-26T05:07:51.853Z,11.18
2022-07-26T05:10:37.528Z,10.18
2022-07-26T05:13:23.143Z,11.05
2022-07-26T05:16:15.057Z,13.30
2022-07-26T05:18:59.441Z,11.90
2022-07-26T05:21:43.463Z,14.02
2022-07-26T05:24:27.404Z,10.02
2022-07-26T05:27:11.232Z,12.73
2022-07-26T05:29:56.791Z,13.13
2022-07-26T05:32:41.034Z,12.77
2022-07-26T05:35:24.961Z,14.63
2022-07-26T05:38:08.906Z,16.15
2022-07-26T05:40:52.932Z,13.38
2022-07-26T05:43:40.942Z,11.60
2022-07-26T05:46:27.117Z,12.43
2022-07-26T05:49:11.154Z,11.73
2022-07-26T05:52:00.861Z,12.40
2022-07-26T05:54:45.153Z,12.48
2022-07-26T05:57:28.987Z,12.23
2022-07-26T06:00:13.684Z,11.60
2022-07-26T06:02:58.999Z,12.75
2022-07-26T06:05:42.954Z,12.10
2022-07-26T06:08:27.591Z,15.57
2022-07-26T06:11:11.414Z,10.70
2022-07-26T06:13:56.729Z,11.20
2022-07-26T06:16:40.659Z,10.10
2022-07-26T06:19:25.980Z,10.15
2022-07-26T06:22:09.965Z,12.07
2022-07-26T06:24:53.889Z,9.48
2022-07-26T06:27:37.764Z,8.93
2022-07-26T06:30:21.609Z,8.57
2022-07-26T06:33:05.998Z,8.00
2022-07-26T06:35:51.497Z,8.35
2022-07-26T06:38:35.418Z,9.73
2022-07-26T06:41:19.330Z,8.10
2022-07-26T06:44:03.123Z,9.80
2022-07-26T06:46:47.027Z,13.23
2022-07-26T06:49:31.051Z,10.95
2022-07-26T06:52:16.363Z,16.17
2022-07-26T06:55:00.627Z,14.30
2022-07-26T06:57:49.660Z,15.50
2022-07-26T07:00:34.556Z,12.80
2022-07-26T07:03:18.473Z,13.57
2022-07-26T07:06:02.428Z,15.65
2022-07-26T07:08:49.053Z,16.08
2022-07-26T07:11:32.935Z,13.93
2022-07-26T07:14:16.873Z,12.63
2022-07-26T07:17:00.881Z,13.98
2022-07-26T07:19:44.722Z,11.45
2022-07-26T07:22:28.647Z,10.93
2022-07-26T07:25:14.711Z,9.60
2022-07-26T07:27:58.805Z,8.45
2022-07-26T07:30:42.707Z,9.88
2022-07-26T07:33:27.346Z,9.82
2022-07-26T07:36:20.749Z,9.23
2022-07-26T07:39:07.035Z,7.60
2022-07-26T07:41:54.320Z,5.68
2022-07-26T07:44:38.406Z,6.35
2022-07-26T07:47:22.970Z,5.85
2022-07-26T07:50:08.323Z,5.43
2022-07-26T07:52:52.180Z,4.82
2022-07-26T07:55:41.366Z,6.35
2022-07-26T07:58:29.601Z,6.65
2022-07-26T08:01:13.562Z,6.15
2022-07-26T08:03:58.246Z,4.95
2022-07-26T08:06:42.866Z,4.97
2022-07-26T08:09:34.777Z,4.70
2022-07-26T08:12:18.746Z,5.25
2022-07-26T08:15:07.234Z,5.15
2022-07-26T08:17:54.084Z,5.07
2022-07-26T08:20:38.764Z,4.93
2022-07-26T08:23:24.383Z,4.75
2022-07-26T08:26:08.524Z,4.55
2022-07-26T08:28:59.983Z,6.22
2022-07-26T08:31:45.873Z,5.82
2022-07-26T08:34:29.922Z,5.13
2022-07-26T08:37:17.617Z,5.95
2022-07-26T08:40:01.931Z,4.95
2022-07-26T08:42:52.636Z,5.03
2022-07-26T08:45:36.869Z,6.95
2022-07-26T08:48:22.133Z,5.50
2022-07-26T08:51:11.094Z,5.15
2022-07-26T08:54:04.443Z,5.60
2022-07-26T08:56:52.307Z,5.60
2022-07-26T08:59:36.253Z,5.38
2022-07-26T09:02:20.168Z,8.05
2022-07-26T09:05:07.011Z,5.05
2022-07-26T09:07:50.924Z,5.10
2022-07-26T09:10:39.156Z,5.53
2022-07-26T09:13:23.418Z,5.20
2022-07-26T09:16:11.512Z,5.30
2022-07-26T09:18:55.991Z,5.40
2022-07-26T09:21:41.169Z,5.88
2022-07-26T09:24:36.032Z,5.50
2022-07-26T09:27:20.160Z,6.25
2022-07-26T09:30:09.199Z,5.75
2022-07-26T09:33:04.184Z,7.95
2022-07-26T09:36:02.299Z,6.40
2022-07-26T09:38:49.170Z,5.50
2022-07-26T09:41:35.897Z,5.30
2022-07-26T09:44:24.818Z,5.35
2022-07-26T09:47:08.757Z,5.55
2022-07-26T09:50:11.619Z,7.05
2022-07-26T09:53:04.746Z,6.10
2022-07-26T09:55:59.190Z,5.47
2022-07-26T09:58:43.776Z,6.10
2022-07-26T10:01:27.694Z,5.32
2022-07-26T10:04:12.302Z,5.43
2022-07-26T10:06:58.208Z,5.20
2022-07-26T10:09:47.674Z,6.85
2022-07-26T10:12:35.212Z,4.85
2022-07-26T10:15:41.602Z,7.30
2022-07-26T10:18:47.441Z,5.43
2022-07-26T10:21:33.095Z,6.00
2022-07-26T10:24:26.535Z,4.60
2022-07-26T10:27:30.337Z,4.90
2022-07-26T10:30:33.824Z,5.72
2022-07-26T10:33:23.158Z,4.82
2022-07-26T10:36:23.012Z,5.75
2022-07-26T10:39:10.619Z,4.63
2022-07-26T10:42:00.098Z,4.70
2022-07-26T10:44:45.294Z,4.55
2022-07-26T10:47:35.122Z,4.43
2022-07-26T10:50:33.353Z,4.53
2022-07-26T10:53:23.529Z,4.07
2022-07-26T10:56:07.737Z,6.55
2022-07-26T10:58:51.469Z,10.65
2022-07-26T11:01:36.216Z,4.00
2022-07-26T11:04:22.578Z,3.60
2022-07-26T11:07:06.548Z,5.57
2022-07-26T11:09:50.356Z,4.95
2022-07-26T11:12:34.245Z,3.78
2022-07-26T11:15:19.726Z,5.68
2022-07-26T11:18:12.873Z,4.65
2022-07-26T11:21:08.984Z,4.72
2022-07-26T11:23:52.952Z,4.63
2022-07-26T11:26:42.819Z,4.45
2022-07-26T11:29:38.152Z,3.97
2022-07-26T11:32:27.631Z,4.63
2022-07-26T11:35:12.083Z,4.18
2022-07-26T11:38:11.330Z,5.28
2022-07-26T11:40:55.855Z,4.10
2022-07-26T11:43:39.785Z,4.03
2022-07-26T11:46:25.126Z,4.28
2022-07-26T11:49:17.407Z,3.80
2022-07-26T11:52:02.909Z,4.10
2022-07-26T11:54:49.839Z,3.72
2022-07-26T11:57:33.818Z,3.65
2022-07-26T12:00:19.388Z,4.85
2022-07-26T12:03:03.221Z,4.10
2022-07-26T12:06:03.241Z,4.47
2022-07-26T12:08:52.728Z,3.83
2022-07-26T12:11:41.909Z,3.88
2022-07-26T12:14:29.825Z,7.45
2022-07-26T12:17:15.385Z,3.88
2022-07-26T12:20:12.123Z,3.95
2022-07-26T12:22:57.732Z,3.95
2022-07-26T12:25:44.896Z,3.78
2022-07-26T12:28:44.124Z,5.30
2022-07-26T12:31:30.034Z,4.00
2022-07-26T12:34:14.466Z,3.47
2022-07-26T12:37:08.402Z,3.78
2022-07-26T12:40:05.964Z,5.18
2022-07-26T12:43:00.728Z,3.42
2022-07-26T12:45:48.582Z,4.18
2022-07-26T12:48:32.583Z,3.58
2022-07-26T12:51:16.596Z,4.25
2022-07-26T12:54:00.479Z,3.95
2022-07-26T12:56:44.418Z,4.68
2022-07-26T12:59:30.890Z,4.18
2022-07-26T13:02:17.866Z,3.65
2022-07-26T13:05:04.461Z,5.60
2022-07-26T13:07:48.592Z,5.32
2022-07-26T13:10:34.647Z,6.47
2022-07-26T13:13:19.298Z,5.88
2022-07-26T13:16:06.769Z,3.95
2022-07-26T13:18:56.502Z,3.65
2022-07-26T13:21:40.472Z,4.05
2022-07-26T13:24:25.079Z,3.90
2022-07-26T13:27:09.712Z,5.68
2022-07-26T13:29:53.569Z,3.95
2022-07-26T13:32:37.517Z,3.70
2022-07-26T13:35:22.838Z,4.43
2022-07-26T13:38:06.765Z,4.20
2022-07-26T13:40:51.445Z,4.10
2022-07-26T13:43:36.462Z,3.92
2022-07-26T13:46:20.302Z,4.25
2022-07-26T13:49:05.578Z,4.57
2022-07-26T13:52:00.040Z,5.18
2022-07-26T13:54:43.918Z,3.95
2022-07-26T13:57:47.969Z,5.97
2022-07-26T14:00:31.659Z,3.78
2022-07-26T14:03:16.099Z,5.03
2022-07-26T14:06:00.065Z,3.45
2022-07-26T14:08:45.619Z,3.90
2022-07-26T14:11:29.435Z,5.18
2022-07-26T14:14:13.864Z,3.90
2022-07-26T14:16:58.014Z,5.85
2022-07-26T14:19:41.965Z,3.58
2022-07-26T14:22:26.107Z,5.18
2022-07-26T14:25:11.930Z,3.55
2022-07-26T14:27:56.540Z,3.90
2022-07-26T14:30:40.973Z,4.20
2022-07-26T14:33:24.862Z,3.60
2022-07-26T14:36:09.626Z,3.85
2022-07-26T14:38:53.543Z,4.35
2022-07-26T14:41:38.850Z,5.25
2022-07-26T14:44:22.772Z,4.93
2022-07-26T14:47:08.687Z,4.18
2022-07-26T14:49:52.630Z,4.18
2022-07-26T14:52:38.354Z,4.43
2022-07-26T14:55:25.392Z,4.75
2022-07-26T14:58:11.073Z,3.70
2022-07-26T15:00:55.578Z,4.25
2022-07-26T15:03:39.705Z,4.47
2022-07-26T15:06:23.837Z,3.85
2022-07-26T15:09:07.871Z,3.60
2022-07-26T15:11:52.274Z,4.68
2022-07-26T15:14:37.927Z,4.65
2022-07-26T15:17:21.984Z,4.95
2022-07-26T15:20:07.851Z,3.92
2022-07-26T15:22:53.954Z,5.28
2022-07-26T15:25:38.209Z,4.03
2022-07-26T15:28:22.113Z,4.82
2022-07-26T15:31:07.380Z,4.60
2022-07-26T15:33:51.422Z,3.70
2022-07-26T15:36:35.785Z,4.55
2022-07-26T15:39:19.743Z,5.35
2022-07-26T15:42:07.503Z,5.20
2022-07-26T15:44:51.910Z,4.20
2022-07-26T15:47:53.985Z,4.53
2022-07-26T15:50:40.138Z,4.90
2022-07-26T15:53:24.332Z,7.20
2022-07-26T15:56:08.300Z,3.70
2022-07-26T15:58:52.199Z,3.65
2022-07-26T16:01:36.548Z,5.43
2022-07-26T16:04:22.036Z,3.65
2022-07-26T16:07:06.092Z,3.50
2022-07-26T16:09:50.307Z,4.63
2022-07-26T16:12:34.889Z,4.18
2022-07-26T16:15:19.238Z,3.47
2022-07-26T16:18:06.419Z,3.60
2022-07-26T16:20:51.962Z,4.40
2022-07-26T16:23:36.621Z,3.40
2022-07-26T16:26:20.432Z,4.50
2022-07-26T16:29:05.992Z,3.80
2022-07-26T16:31:50.143Z,3.65
2022-07-26T16:34:34.895Z,3.50
2022-07-26T16:37:20.124Z,3.47
2022-07-26T16:40:04.121Z,3.40
2022-07-26T16:42:48.108Z,4.00
2022-07-26T16:45:31.987Z,4.13
2022-07-26T16:48:17.134Z,4.05
2022-07-26T16:51:01.161Z,4.72
2022-07-26T16:53:48.485Z,3.60
2022-07-26T16:56:32.640Z,4.30
2022-07-26T16:59:17.762Z,4.03
2022-07-26T17:02:03.084Z,4.50
2022-07-26T17:04:47.157Z,5.10
2022-07-26T17:07:32.089Z,4.00
2022-07-26T17:10:18.284Z,7.63
2022-07-26T17:13:02.267Z,3.95
2022-07-26T17:15:46.244Z,5.03
2022-07-26T17:18:30.547Z,5.15
2022-07-26T17:21:14.552Z,4.75
2022-07-26T17:24:00.578Z,5.35
2022-07-26T17:26:49.216Z,5.20
2022-07-26T17:29:33.148Z,4.38
2022-07-26T17:32:17.077Z,4.30
2022-07-26T17:35:01.039Z,4.10
2022-07-26T17:37:47.470Z,3.80
2022-07-26T17:40:31.758Z,5.45
2022-07-26T17:43:17.616Z,3.95
2022-07-26T17:46:01.578Z,6.53
2022-07-26T17:48:47.175Z,4.10
2022-07-26T17:51:31.136Z,4.38
2022-07-26T17:54:15.029Z,6.10
2022-07-26T17:56:58.883Z,6.28
2022-07-26T17:59:44.546Z,3.65
2022-07-26T18:02:28.424Z,3.78
2022-07-26T18:05:12.487Z,5.60
2022-07-26T18:07:56.393Z,3.95
2022-07-26T18:10:40.195Z,4.03
2022-07-26T18:13:24.751Z,4.03
2022-07-26T18:16:10.092Z,3.40
2022-07-26T18:18:54.324Z,7.28
2022-07-26T18:21:38.091Z,3.83
2022-07-26T18:24:22.011Z,3.88
2022-07-26T18:27:06.306Z,4.22
2022-07-26T18:29:50.514Z,4.63
2022-07-26T18:32:36.047Z,4.15
2022-07-26T18:35:20.144Z,5.60
2022-07-26T18:38:04.392Z,5.65
2022-07-26T18:40:48.499Z,5.65
2022-07-26T18:43:32.544Z,4.78
2022-07-26T18:46:16.637Z,4.22
2022-07-26T18:49:02.379Z,4.50
2022-07-26T18:51:48.456Z,5.82
2022-07-26T18:54:33.113Z,6.63
2022-07-26T18:57:16.920Z,4.10
2022-07-26T19:00:00.895Z,4.25
2022-07-26T19:02:46.654Z,5.63
2022-07-26T19:05:35.370Z,9.85
2022-07-26T19:08:19.582Z,4.63
2022-07-26T19:11:03.667Z,6.97
2022-07-26T19:13:47.737Z,5.20
2022-07-26T19:16:31.771Z,4.88
2022-07-26T19:19:16.246Z,4.43
2022-07-26T19:22:01.692Z,8.07
2022-07-26T19:24:58.626Z,4.80
2022-07-26T19:27:42.779Z,4.47
2022-07-26T19:30:26.677Z,4.28
2022-07-26T19:33:10.643Z,5.38
2022-07-26T19:35:54.621Z,5.40
2022-07-26T19:38:39.888Z,6.70
2022-07-26T19:41:24.139Z,5.03
2022-07-26T19:44:07.971Z,4.10
2022-07-26T19:46:56.970Z,4.40
2022-07-26T19:49:41.461Z,3.90
2022-07-26T19:52:25.306Z,4.70
2022-07-26T19:55:11.467Z,4.07
2022-07-26T19:57:55.461Z,5.38
2022-07-26T20:00:39.646Z,5.03
2022-07-26T20:03:23.557Z,4.68
2022-07-26T20:06:07.836Z,4.75
2022-07-26T20:08:52.414Z,4.47
2022-07-26T20:11:38.853Z,5.22
2022-07-26T20:14:22.848Z,4.63
2022-07-26T20:17:12.149Z,5.80
2022-07-26T20:19:57.062Z,5.00
2022-07-26T20:22:40.924Z,4.97
2022-07-26T20:25:25.272Z,4.93
2022-07-26T20:28:10.513Z,5.55
2022-07-26T20:30:55.121Z,4.63
2022-07-26T20:33:39.142Z,7.68
2022-07-26T20:36:23.116Z,5.60
2022-07-26T20:39:07.152Z,5.22
2022-07-26T20:41:51.146Z,5.25
2022-07-26T20:44:39.620Z,4.93
2022-07-26T20:47:23.554Z,6.22
2022-07-26T20:50:08.941Z,4.90
2022-07-26T20:52:52.839Z,3.95
2022-07-26T20:55:36.629Z,6.13
2022-07-26T20:58:21.674Z,9.88
2022-07-26T21:01:07.605Z,4.03
2022-07-26T21:03:51.484Z,4.30
2022-07-26T21:06:35.343Z,3.65
2022-07-26T21:09:19.263Z,3.65
2022-07-26T21:12:03.213Z,3.97
2022-07-26T21:14:47.178Z,4.90
2022-07-26T21:17:32.721Z,4.20
2022-07-26T21:20:18.769Z,4.50
2022-07-26T21:23:16.079Z,5.63
2022-07-26T21:26:01.185Z,3.92
2022-07-26T21:28:45.059Z,4.18
2022-07-26T21:31:29.004Z,4.63
2022-07-26T21:34:14.356Z,3.85
2022-07-26T21:36:58.299Z,3.92
2022-07-26T21:39:42.278Z,4.78
2022-07-26T21:42:26.905Z,4.03
2022-07-26T21:45:11.611Z,4.15
2022-07-26T21:47:55.476Z,3.83
2022-07-26T21:50:40.720Z,7.63
2022-07-26T21:53:24.563Z,3.72
2022-07-26T21:56:08.490Z,4.30
2022-07-26T21:58:52.420Z,4.40
2022-07-26T22:01:36.285Z,4.07
2022-07-26T22:04:21.968Z,3.92
2022-07-26T22:07:07.284Z,3.72
2022-07-26T22:09:51.149Z,4.97
2022-07-26T22:12:35.042Z,4.30
2022-07-26T22:15:19.124Z,4.15
2022-07-26T22:18:03.468Z,4.07
2022-07-26T22:20:49.244Z,4.63
2022-07-26T22:23:34.501Z,3.45
2022-07-26T22:26:18.866Z,5.28
2022-07-26T22:29:03.138Z,3.38
2022-07-26T22:31:47.032Z,3.85
2022-07-26T22:34:30.981Z,3.72
2022-07-26T22:37:14.942Z,5.55
2022-07-26T22:40:00.288Z,3.55
2022-07-26T22:42:44.737Z,3.55
2022-07-26T22:45:29.815Z,3.30
2022-07-26T22:48:13.844Z,4.25
2022-07-26T22:50:57.965Z,3.67
2022-07-26T22:53:41.950Z,3.88
2022-07-26T22:56:27.375Z,3.53
2022-07-26T22:59:11.619Z,4.30
2022-07-26T23:01:56.754Z,4.03
2022-07-26T23:04:40.740Z,4.68
2022-07-26T23:07:24.540Z,4.05
2022-07-26T23:10:10.674Z,3.13
2022-07-26T23:12:56.512Z,3.33
2022-07-26T23:15:40.431Z,3.20
2022-07-26T23:18:24.493Z,4.15
2022-07-26T23:21:08.537Z,3.83
2022-07-26T23:23:52.425Z,3.72
2022-07-26T23:26:36.533Z,3.53
2022-07-26T23:29:21.851Z,5.57
2022-07-26T23:32:06.501Z,3.50
2022-07-26T23:34:52.359Z,3.08
2022-07-26T23:37:36.203Z,4.63
2022-07-26T23:40:21.167Z,2.95
2022-07-26T23:43:05.214Z,2.70
2022-07-26T23:45:50.541Z,3.45
2022-07-26T23:48:34.438Z,4.65
2022-07-26T23:51:19.535Z,4.15
2022-07-26T23:54:03.534Z,5.35
2022-07-26T23:56:47.626Z,3.55
2022-07-26T23:59:31.440Z,3.00
